»·PEaware :: N733TR KVUO-W28

N733TR :: KVUO-W28

FLIGHT INFORMATION

Flight Status: Arrived
Operator: Privately registered:
United States
More flights under this callsign
Pilot: Jonathan B. (787)
Aircraft: Unknown
(LEG2)
More flights by this aircraft type
Origin: KVUO Pearson
United States
Destination: W28 Sequim Valley
United States
More flights between these airports :: More routes between these airports
Route:
File this flight plan on PilotEdge
Remarks: wa alphabet
Altitude:
(Current/Filed)
4,500ft
Speed:
(Current/Filed)
220kts
Departed: 10-Oct-20 09:58 AM
Arrived: 10-Oct-20 10:41 AM
Distance/Time
Traveled:
150nm/0:43
Distance/Time
To Go:
Arrived

Flight Plot

Page will automatically refresh every two minutes.

Flight plan parsing failed; only flown route is shown


Map Options




Map Legend


Flown Route
Filed Route
Departure Airport
Arrival Airport
Navaid (VOR, NDB)
Fix

Horizontal Profiles

Position Reports

Time Latitude Longitude Heading Altitude Ground
Speed
10-Oct-20 09:46 45.621483 -122.654062 183 84ft 0kts
10-Oct-20 09:47 45.621483 -122.654062 183 84ft 0kts
10-Oct-20 09:48 45.621483 -122.654062 183 84ft 0kts
10-Oct-20 09:49 45.621483 -122.654062 183 84ft 0kts
10-Oct-20 09:50 45.621483 -122.654062 183 84ft 0kts
10-Oct-20 09:51 45.621483 -122.654062 183 84ft 0kts
10-Oct-20 09:52 45.621483 -122.654062 183 84ft 0kts
10-Oct-20 09:53 45.621225 -122.652910 92 84ft 7kts
10-Oct-20 09:54 45.621377 -122.650209 355 84ft 3kts
10-Oct-20 09:55 45.620892 -122.651608 175 84ft 11kts
10-Oct-20 09:56 45.620258 -122.650306 102 84ft 0kts
10-Oct-20 09:57 45.620935 -122.660769 275 173ft 123kts
10-Oct-20 09:58 45.670607 -122.693456 7 974ft 230kts
10-Oct-20 09:59 45.739204 -122.680187 349 1538ft 222kts
10-Oct-20 10:00 45.807396 -122.692002 3 1947ft 217kts
10-Oct-20 10:01 45.872436 -122.707484 334 2482ft 220kts
10-Oct-20 10:02 45.935325 -122.755494 329 2474ft 231kts
10-Oct-20 10:03 45.999083 -122.805229 330 2478ft 233kts
10-Oct-20 10:04 46.062499 -122.854829 330 2481ft 234kts
10-Oct-20 10:05 46.126209 -122.899075 352 2480ft 234kts
10-Oct-20 10:06 46.197370 -122.909535 354 2480ft 235kts
10-Oct-20 10:07 46.269275 -122.919695 354 2480ft 235kts
10-Oct-20 10:08 46.341513 -122.929929 354 2479ft 235kts
10-Oct-20 10:09 46.407118 -122.962587 329 2762ft 231kts
10-Oct-20 10:10 46.474056 -122.991458 351 3000ft 229kts
10-Oct-20 10:11 46.541741 -123.009073 21 2473ft 250kts
10-Oct-20 10:12 46.609236 -122.992659 4 2462ft 238kts
10-Oct-20 10:13 46.675679 -122.984303 4 2463ft 236kts
10-Oct-20 10:14 46.742825 -122.987759 353 2460ft 235kts
10-Oct-20 10:15 46.813851 -122.997017 353 2444ft 235kts
10-Oct-20 10:16 46.883769 -123.005069 353 2429ft 236kts
10-Oct-20 10:17 46.956510 -123.012654 353 2421ft 236kts
10-Oct-20 10:18 47.029481 -123.019670 353 2415ft 237kts
10-Oct-20 10:19 47.102253 -123.015546 6 2410ft 239kts
10-Oct-20 10:20 47.174820 -123.001387 358 2412ft 237kts
10-Oct-20 10:21 47.248179 -122.999379 358 2405ft 237kts
10-Oct-20 10:22 47.319329 -122.976137 15 2393ft 241kts
10-Oct-20 10:23 47.388074 -122.935518 41 1168ft 201kts
10-Oct-20 10:24 47.424470 -122.881263 56 1008ft 175kts
10-Oct-20 10:25 47.455478 -122.817512 29 1118ft 196kts
10-Oct-20 10:26 47.506665 -122.759339 50 1253ft 226kts
10-Oct-20 10:27 47.549848 -122.693539 44 1431ft 222kts
10-Oct-20 10:28 47.608435 -122.677429 359 1558ft 216kts
10-Oct-20 10:29 47.671818 -122.670001 7 1454ft 225kts
10-Oct-20 10:30 47.734399 -122.676743 351 1609ft 216kts
10-Oct-20 10:31 47.796937 -122.684691 350 2289ft 192kts
10-Oct-20 10:32 47.861020 -122.693062 356 2384ft 213kts
10-Oct-20 10:33 47.923191 -122.703367 330 2460ft 211kts
10-Oct-20 10:34 47.973301 -122.755840 301 2524ft 206kts
10-Oct-20 10:35 48.013625 -122.843077 302 2237ft 252kts
10-Oct-20 10:36 48.039400 -122.951192 282 1621ft 259kts
10-Oct-20 10:37 48.070037 -123.059868 299 848ft 223kts
10-Oct-20 10:38 48.086208 -123.117359 288 781ft 126kts
10-Oct-20 10:39 48.093939 -123.168476 284 506ft 74kts
10-Oct-20 10:40 48.098365 -123.186123 9 146ft 12kts

Navigation Log

Ident Type
Flight plan parsing failed, navigation log unavailable